Los Posos, Valles Caldera, New Mexico Weather observations

Data are for 10 minute period ending at time listed.
 Day   Time   Solar   Ave.   Ave.  Ave.  Vector  Max.   Baro.   Total    
  of    of     Rad.   Air    Rel.  Wind   Wind   Wind  Press.  Precip.   
Year   Day            Temp.  Hum.  Speed  Dir.   Gust                    
2016   (MST)  Kw/m2    F      %     mph   deg.    mph    mb.     in.     
-------------------------------------------------------------------------
 341    1:30   0.00   19.4    53    2.6   212     4.2   99999.0    0.00 
 341    1:40   0.00   19.5    55    2.1   249     3.6   99999.0    0.00 
 341    1:50   0.00   20.5    51    2.3   237     3.6   99999.0    0.00 
 341    2:00   0.00   19.3    55    1.3   318     3.0   99999.0    0.00 
 341    2:10   0.00   18.4    59    0.3   290     2.4   99999.0    0.00 
 341    2:20   0.00   18.4    63    0.7   245     1.8   99999.0    0.00 
 341    2:30   0.00   19.0    63    1.5   238     3.0   99999.0    0.00 
 341    2:40   0.00   19.0    64    1.3   288     3.0   99999.0    0.00 
 341    2:50   0.00   18.7    67    0.3   259     1.8   99999.0    0.00 
 341    3:00   0.00   19.6    61    2.4   218     4.2   99999.0    0.00 
 341    3:10   0.00   21.3    53    3.1   225     4.2   99999.0    0.00 
 341    3:20   0.00   23.1    47    3.1   232     5.4   99999.0    0.00 
 341    3:30   0.00   24.8    40    3.4   217     7.8   99999.0    0.00 
 341    3:40   0.00   24.6    43    2.8   216     4.2   99999.0    0.00 
 341    3:50   0.00   25.0    41    3.6   232     7.2   99999.0    0.00 
 341    4:00   0.00   25.3    40    3.2   198     4.8   99999.0    0.00 
 341    4:10   0.00   24.5    45    2.9   223     4.2   99999.0    0.00 
 341    4:20   0.00   22.8    51    2.6   224     3.6   99999.0    0.00 
 341    4:30   0.00   23.0    51    2.3   210     3.6   99999.0    0.00 
 341    4:40   0.00   21.7    56    2.6   221     3.6   99999.0    0.00 
 341    4:50   0.00   20.2    63    2.8   228     4.2   99999.0    0.00 
 341    5:00   0.00   18.9    61    3.0   226     4.2   99999.0    0.00 
 341    5:10   0.00   17.9    61    2.8   228     3.6   99999.0    0.00 
 341    5:20   0.00   16.4    64    3.0   234     4.2   99999.0    0.00 
 341    5:30   0.00   15.4    67    2.1   242     4.2   99999.0    0.00 
 341    5:40   0.00   14.7    69    3.3   228     4.8   99999.0    0.00 
 341    5:50   0.00   14.3    70    2.7   236     4.2   99999.0    0.00 
 341    6:00   0.00   15.4    68    1.4   220     3.6   99999.0    0.00 
 341    6:10   0.00   15.1    69    1.1   247     3.6   99999.0    0.00 
 341    6:20   0.00   15.2    70    2.6   232     4.2   99999.0    0.00 
 341    6:30   0.00   16.8    64    2.6   211     3.6   99999.0    0.00 
 341    6:40   0.00   16.0    62    1.9   332     3.0   99999.0    0.00 
 341    6:50   0.00   13.9    70    0.1   326     1.8   99999.0    0.00 
 341    7:00   0.00   13.4    74    0.5   294     2.4   99999.0    0.00 
 341    7:10   0.00   13.2    76    0.3   238     1.8   99999.0    0.00 
 341    7:20   0.01   12.9    76    0.0   232     1.2   99999.0    0.00 
 341    7:30   0.01   13.0    75    0.0     0     0.0   99999.0    0.00 
 341    7:40   0.02   13.7    76    0.1   244     1.8   99999.0    0.00 
 341    7:50   0.05   14.8    73    1.5   259     3.0   99999.0    0.00 
 341    8:00   0.06   16.0    73    0.6   244     2.4   99999.0    0.00 
 341    8:10   0.07   17.5    64    0.1   168     1.8   99999.0    0.00 
 341    8:20   0.08   19.2    67    0.0     0     0.0   99999.0    0.00 
 341    8:30   0.08   20.3    64    0.0     0     0.0   99999.0    0.00 
 341    8:40   0.10   21.4    56    0.0     0     0.0   99999.0    0.00 
 341    8:50   0.12   22.8    57    1.9   209     6.6   99999.0    0.00 
 341    9:00   0.15   27.2    45    5.5   204    11.3   99999.0    0.00 
 341    9:10   0.16   28.1    46    5.5   199    12.5   99999.0    0.00 
 341    9:20   0.15   28.3    48    6.1   198    10.8   99999.0    0.00 
 341    9:30   0.14   28.5    49    4.8   216     8.4   99999.0    0.00 
 341    9:40   0.17   29.1    49    3.6   211     6.0   99999.0    0.00 
 341    9:50   0.16   29.8    48    2.5   215     4.8   99999.0    0.00 
 341   10:00   0.14   29.6    49    3.8   191     7.8   99999.0    0.00 
 341   10:10   0.17   29.7    49    4.8   182     8.4   99999.0    0.00 
 341   10:20   0.17   30.1    48    5.8   186    10.2   99999.0    0.00 
 341   10:30   0.14   30.5    47    4.6   213     8.4   99999.0    0.00 
 341   10:40   0.18   30.6    48    4.3   194     7.8   99999.0    0.00 
 341   10:50   0.21   30.7    47    5.9   202     9.6   99999.0    0.00 
 341   11:00   0.17   30.2    49    7.7   210    16.1   99999.0    0.00 
 341   11:10   0.14   29.2    52    8.2   198    13.7   99999.0    0.00 
 341   11:20   0.15   28.8    53    7.4   188    12.5   99999.0    0.00 
 341   11:30   0.18   28.8    53    6.9   208    13.7   99999.0    0.00 
 341   11:40   0.19   29.0    52    8.0   195    16.7   99999.0    0.00 
 341   11:50   0.18   28.6    54    6.1   197    12.5   99999.0    0.00 
 341   12:00   0.15   28.9    52    6.4   202    11.9   99999.0    0.00 
 341   12:10   0.15   28.9    52    6.9   202    11.9   99999.0    0.00 
 341   12:20   0.18   29.4    50    6.3   193    14.3   99999.0    0.00 
 341   12:30   0.18   29.4    50    7.4   201    16.7   99999.0    0.00 
 341   12:40   0.20   29.5    51    6.6   193    11.9   99999.0    0.00 
 341   12:50   0.20   29.1    52    7.6   194    14.9   99999.0    0.00 
 341   13:00   0.24   29.1    52    8.6   194    17.3   99999.0    0.00 
 341   13:10   0.27   29.4    51    7.9   198    12.5   99999.0    0.00 
 341   13:20   0.27   29.5    51    7.0   192    13.1   99999.0    0.00 
 341   13:30   0.24   29.7    51    6.9   202    13.7   99999.0    0.00 
 341   13:40   0.24   29.3    52    8.0   194    16.1   99999.0    0.00 
 341   13:50   0.23   29.3    52    7.5   196    14.3   99999.0    0.00 
 341   14:00   0.19   29.2    52    7.2   196    17.9   99999.0    0.00 
 341   14:10   0.20   29.2    52    7.6   206    12.5   99999.0    0.00 
 341   14:20   0.20   29.2    52    8.0   201    13.7   99999.0    0.00 
 341   14:30   0.17   29.1    52    7.1   192    11.9   99999.0    0.00 
 341   14:40   0.15   29.3    53    6.2   196    12.5   99999.0    0.00 
 341   14:50   0.15   29.3    53    6.4   191    11.3   99999.0    0.00 
 341   15:00   0.12   29.2    54    5.5   217    10.8   99999.0    0.00 
 341   15:10   0.10   29.0    56    4.9   240     9.0   99999.0    0.00 
 341   15:20   0.09   28.9    58    4.0   223    10.2   99999.0    0.00 
 341   15:30   0.06   28.4    59    4.5   218     7.8   99999.0    0.00 
 341   15:40   0.04   27.3    68    5.7   225    13.7   99999.0    0.00 
 341   15:50   0.05   26.3    74    4.2   193     9.0   99999.0    0.00 
 341   16:00   0.04   26.2    76    3.2   214     8.4   99999.0    0.00 
 341   16:10   0.04   26.5    75    2.4   252     6.0   99999.0    0.00 
 341   16:20   0.03   26.7    72    2.5   243     5.4   99999.0    0.00 
 341   16:30   0.02   27.0    68    3.1   231     4.8   99999.0    0.00 
 341   16:40   0.01   27.0    66    4.0   208     6.6   99999.0    0.00 
 341   16:50   0.00   26.7    65    4.6   191     7.8   99999.0    0.00 
 341   17:00   0.00   26.7    64    4.3   192     6.6   99999.0    0.00 
 341   17:10   0.00   26.7    63    4.5   206     7.8   99999.0    0.00 
 341   17:20   0.00   26.3    64    4.1   201     7.2   99999.0    0.00 
 341   17:30   0.00   26.0    63    5.4   194     8.4   99999.0    0.00 
 341   17:40   0.00   25.7    63    5.8   207     8.4   99999.0    0.00 
 341   17:50   0.00   25.4    63    5.5   215    10.2   99999.0    0.00 
 341   18:00   0.00   25.8    62    5.9   198     9.0   99999.0    0.00 
 341   18:10   0.00   25.5    63    5.5   209     7.8   99999.0    0.00 
 341   18:20   0.00   25.5    62    6.1   201    10.2   99999.0    0.00 
 341   18:30   0.00   25.7    62    6.8   201    12.5   99999.0    0.00 
 341   18:40   0.00   25.6    62    6.2   214    10.2   99999.0    0.00 
 341   18:50   0.00   25.8    62    6.9   205     9.6   99999.0    0.00 
 341   19:00   0.00   25.7    63    6.1   212    10.2   99999.0    0.00 
 341   19:10   0.00   25.8    63    5.5   218     9.0   99999.0    0.00 
 341   19:20   0.00   26.1    63    6.5   213    13.7   99999.0    0.00 
 341   19:30   0.00   27.0    63    6.7   214    12.5   99999.0    0.00 
 341   19:40   0.00   27.4    62    7.2   204    13.7   99999.0    0.00 
 341   19:50   0.00   27.6    62    7.6   221    13.1   99999.0    0.00 
 341   20:00   0.00   27.8    62    7.2   236    11.9   99999.0    0.00 
 341   20:10   0.00   28.1    63    8.6   229    16.7   99999.0    0.00 
 341   20:20   0.00   28.3    64    8.9   220    20.3   99999.0    0.00 
 341   20:30   0.00   28.4    65   10.2   229    22.7   99999.0    0.00 
 341   20:40   0.00   28.2    65    7.4   222    14.9   99999.0    0.00 
 341   20:50   0.00   28.1    65    7.7   214    14.9   99999.0    0.00 
 341   21:00   0.00   27.9    66    6.9   209    12.5   99999.0    0.00 
 341   21:10   0.00   27.9    67    6.5   227    12.5   99999.0    0.00 
 341   21:20   0.00   28.0    68   10.1   231    25.6   99999.0    0.00 
 341   21:30   0.00   28.0    68    9.4   229    20.3   99999.0    0.00 
 341   21:40   0.00   28.1    68   12.8   233    25.6   99999.0    0.00 
 341   21:50   0.00   28.0    69    9.3   232    22.1   99999.0    0.00 
 341   22:00   0.00   27.9    69   10.2   220    26.8   99999.0    0.00 
 341   22:10   0.00   27.9    70   11.8   233    25.6   99999.0    0.00 
 341   22:20   0.00   27.8    70    9.7   239    20.9   99999.0    0.00 
 341   22:30   0.00   27.8    70   10.3   230    21.5   99999.0    0.00 
 341   22:40   0.00   27.7    70   10.3   235    23.9   99999.0    0.00 
 341   22:50   0.00   27.5    71   10.8   231    23.9   99999.0    0.00 
 341   23:00   0.00   27.3    71   12.0   242    25.6   99999.0    0.00 
 341   23:10   0.00   27.2    71   11.7   228    25.0   99999.0    0.00 
 341   23:20   0.00   27.0    71    8.8   234    17.9   99999.0    0.00 
 341   23:30   0.00   26.8    72    7.4   237    16.1   99999.0    0.00 
 341   23:40   0.00   26.7    72   10.5   228    23.3   99999.0    0.00 
 341   23:50   0.00   26.5    73    8.8   230    20.3   99999.0    0.00 
 342    0:00   0.00   26.3    73    7.1   232    21.5   99999.0    0.00 
 342    0:10   0.00   26.2    73    6.4   241    14.9   99999.0    0.00 
 342    0:20   0.00   26.1    74   10.4   230    21.5   99999.0    0.00 
 342    0:30   0.00   26.1    74    7.3   245    13.7   99999.0    0.00 
 342    0:40   0.00   26.0    74    7.2   234    20.9   99999.0    0.00 
 342    0:50   0.00   25.9    74    7.6   237    25.6   99999.0    0.00 
 342    1:00   0.00   25.7    75    8.2   234    16.7   99999.0    0.00 
 342    1:10   0.00   25.7    75    9.3   243    19.7   99999.0    0.00 
 342    1:20   0.00   25.5    75    8.3   251    16.1   99999.0    0.00 

Return to Los Posos, Valles Caldera graphs page.


Western Regional Climate Center,wrcc@dri.edu